createdAt,value
2022-12-24T00:01:37.344Z,3.62
2022-12-24T00:06:34.497Z,3.00
2022-12-24T00:11:31.402Z,3.69
2022-12-24T00:16:28.652Z,3.64
2022-12-24T00:21:27.892Z,3.49
2022-12-24T00:26:24.854Z,3.38
2022-12-24T00:31:21.834Z,3.02
2022-12-24T00:36:20.041Z,3.42
2022-12-24T00:41:25.317Z,3.19
2022-12-24T00:46:23.415Z,3.59
2022-12-24T00:51:21.407Z,3.58
2022-12-24T00:56:20.167Z,3.56
2022-12-24T01:01:17.865Z,3.44
2022-12-24T01:06:17.290Z,3.52
2022-12-24T01:11:14.196Z,3.43
2022-12-24T01:16:16.948Z,3.35
2022-12-24T01:21:14.846Z,3.46
2022-12-24T01:26:11.988Z,2.62
2022-12-24T01:31:14.234Z,3.20
2022-12-24T01:36:13.163Z,2.99
2022-12-24T01:41:34.463Z,3.42
2022-12-24T01:46:32.617Z,3.31
2022-12-24T01:51:35.775Z,3.08
2022-12-24T01:56:34.084Z,3.13
2022-12-24T02:01:31.149Z,3.17
2022-12-24T02:06:28.179Z,2.93
2022-12-24T02:11:25.826Z,3.09
2022-12-24T02:16:36.767Z,3.24
2022-12-24T02:21:55.069Z,3.59
2022-12-24T02:27:12.468Z,3.84
2022-12-24T02:32:15.104Z,3.70
2022-12-24T02:37:17.197Z,3.29
2022-12-24T02:42:18.791Z,3.88
2022-12-24T02:47:18.563Z,4.15
2022-12-24T02:52:32.849Z,4.19
2022-12-24T02:57:44.521Z,4.09
2022-12-24T03:02:57.831Z,4.28
2022-12-24T03:08:02.342Z,4.27
2022-12-24T03:13:04.738Z,4.14
2022-12-24T03:18:06.076Z,4.17
2022-12-24T03:23:03.878Z,4.12
2022-12-24T03:28:04.695Z,4.34
2022-12-24T03:33:02.313Z,4.14
2022-12-24T03:37:59.277Z,4.05
2022-12-24T03:42:56.212Z,4.35
2022-12-24T03:47:53.247Z,3.98
2022-12-24T03:52:50.880Z,4.29
2022-12-24T03:57:47.661Z,4.26
2022-12-24T04:02:44.582Z,4.22
2022-12-24T04:07:41.533Z,4.16
2022-12-24T04:12:39.357Z,4.03
2022-12-24T04:17:36.174Z,4.12
2022-12-24T04:22:32.949Z,4.10
2022-12-24T04:27:30.921Z,3.63
2022-12-24T04:32:29.016Z,3.98
2022-12-24T04:37:25.826Z,3.59
2022-12-24T04:42:22.730Z,3.89
2022-12-24T04:47:19.619Z,3.75
2022-12-24T04:52:17.076Z,3.63
2022-12-24T04:57:15.577Z,3.39
2022-12-24T05:02:12.669Z,3.74
2022-12-24T05:07:09.827Z,3.52
2022-12-24T05:12:07.873Z,3.44
2022-12-24T05:17:04.797Z,3.68
2022-12-24T05:22:19.565Z,3.68
2022-12-24T05:27:17.347Z,3.48
2022-12-24T05:32:14.277Z,3.67
2022-12-24T05:37:11.214Z,3.44
2022-12-24T05:42:08.299Z,3.75
2022-12-24T05:47:06.095Z,3.55
2022-12-24T05:52:03.131Z,3.71
2022-12-24T05:57:00.054Z,3.52
2022-12-24T06:01:57.066Z,3.97
2022-12-24T06:06:54.669Z,3.97
2022-12-24T06:11:51.624Z,3.71
2022-12-24T06:16:48.619Z,3.97
2022-12-24T06:21:45.546Z,4.22
2022-12-24T06:26:43.210Z,4.27
2022-12-24T06:31:40.165Z,4.23
2022-12-24T06:36:37.328Z,3.89
2022-12-24T06:41:34.314Z,4.42
2022-12-24T06:46:32.184Z,4.54
2022-12-24T06:51:29.296Z,4.55
2022-12-24T06:56:26.290Z,4.82
2022-12-24T07:01:23.818Z,4.79
2022-12-24T07:06:25.438Z,5.11
2022-12-24T07:11:23.681Z,5.15
2022-12-24T07:16:22.913Z,4.93
2022-12-24T07:21:19.920Z,5.44
2022-12-24T07:26:17.472Z,5.27
2022-12-24T07:31:15.576Z,5.50
2022-12-24T07:36:18.341Z,5.93
2022-12-24T07:41:18.295Z,6.10
2022-12-24T07:46:15.400Z,5.89
2022-12-24T07:51:12.506Z,6.76
2022-12-24T07:56:12.873Z,6.92
2022-12-24T08:01:11.347Z,6.76
2022-12-24T08:06:08.754Z,6.84
2022-12-24T08:11:07.667Z,7.08
2022-12-24T08:16:05.447Z,7.17
2022-12-24T08:21:03.920Z,7.51
2022-12-24T08:26:00.920Z,7.11
2022-12-24T08:30:59.586Z,7.74
2022-12-24T08:35:58.543Z,7.74
2022-12-24T08:40:57.210Z,8.18
2022-12-24T08:45:54.164Z,8.47
2022-12-24T08:50:51.173Z,8.56
2022-12-24T08:55:55.967Z,8.89
2022-12-24T09:00:56.476Z,8.91
2022-12-24T09:05:53.927Z,9.67
2022-12-24T09:10:52.589Z,10.00
2022-12-24T09:15:54.200Z,10.25
2022-12-24T09:20:56.887Z,10.44
2022-12-24T09:25:59.242Z,10.31
2022-12-24T09:31:22.932Z,10.34
2022-12-24T09:36:26.124Z,11.01
2022-12-24T09:41:44.173Z,10.80
2022-12-24T09:46:53.918Z,10.89
2022-12-24T09:52:02.792Z,11.29
2022-12-24T09:57:06.916Z,11.66
2022-12-24T10:02:12.546Z,11.87
2022-12-24T10:07:29.342Z,11.59
2022-12-24T10:12:35.359Z,11.31
2022-12-24T10:17:53.481Z,11.27
2022-12-24T10:22:58.403Z,11.33
2022-12-24T10:27:58.147Z,10.93
2022-12-24T10:33:00.225Z,11.24
2022-12-24T10:38:03.961Z,11.41
2022-12-24T10:43:02.524Z,10.80
2022-12-24T10:48:12.903Z,11.02
2022-12-24T10:53:19.102Z,11.23
2022-12-24T10:58:30.658Z,11.03
2022-12-24T11:03:38.499Z,10.68
2022-12-24T11:08:44.139Z,11.10
2022-12-24T11:13:58.234Z,11.51
2022-12-24T11:19:01.361Z,11.36
2022-12-24T11:24:06.803Z,11.93
2022-12-24T11:29:21.426Z,11.41
2022-12-24T11:34:35.637Z,11.62
2022-12-24T11:39:40.667Z,11.69
2022-12-24T11:44:48.978Z,11.57
2022-12-24T11:49:56.948Z,11.21
2022-12-24T11:55:17.412Z,11.06
2022-12-24T12:00:15.273Z,11.09
2022-12-24T12:05:20.100Z,11.08
2022-12-24T12:10:26.710Z,10.47
2022-12-24T12:15:35.654Z,10.62
2022-12-24T12:20:44.493Z,10.54
2022-12-24T12:25:46.262Z,10.99
2022-12-24T12:30:54.158Z,10.50
2022-12-24T12:35:54.661Z,10.70
2022-12-24T12:41:24.884Z,10.22
2022-12-24T12:46:35.325Z,10.53
2022-12-24T12:51:46.195Z,10.17
2022-12-24T12:56:50.433Z,10.35
2022-12-24T13:02:01.790Z,10.27
2022-12-24T13:07:31.488Z,10.16
2022-12-24T13:12:59.573Z,10.26
2022-12-24T13:18:26.057Z,9.56
2022-12-24T13:23:36.952Z,10.24
2022-12-24T13:28:58.143Z,10.05
2022-12-24T13:34:38.644Z,9.63
2022-12-24T13:40:02.520Z,10.21
2022-12-24T13:45:20.812Z,10.16
2022-12-24T13:50:25.089Z,9.70
2022-12-24T13:55:37.576Z,9.71
2022-12-24T14:00:46.366Z,9.70
2022-12-24T14:05:50.954Z,9.47
2022-12-24T14:11:03.669Z,10.06
2022-12-24T14:16:04.724Z,9.81
2022-12-24T14:21:05.951Z,9.99
2022-12-24T14:26:10.018Z,9.96
2022-12-24T14:31:16.119Z,10.09
2022-12-24T14:36:15.634Z,9.88
2022-12-24T14:41:42.857Z,9.37
2022-12-24T14:46:48.737Z,9.77
2022-12-24T14:51:55.102Z,9.67
2022-12-24T14:57:21.017Z,9.19
2022-12-24T15:02:50.002Z,9.57
2022-12-24T15:07:56.764Z,9.65
2022-12-24T15:12:59.091Z,9.42
2022-12-24T15:18:04.580Z,9.29
2022-12-24T15:23:01.783Z,9.54
2022-12-24T15:28:03.438Z,9.42
2022-12-24T15:33:02.658Z,9.39
2022-12-24T15:38:00.111Z,9.84
2022-12-24T15:42:57.831Z,9.81
2022-12-24T15:48:01.881Z,10.01
2022-12-24T15:53:20.969Z,9.84
2022-12-24T15:58:25.791Z,10.07
2022-12-24T16:03:26.953Z,9.67
2022-12-24T16:08:28.619Z,9.95
2022-12-24T16:13:32.893Z,9.90
2022-12-24T16:18:34.798Z,9.83
2022-12-24T16:23:43.462Z,10.10
2022-12-24T16:28:40.514Z,9.76
2022-12-24T16:33:38.498Z,9.99
2022-12-24T16:38:55.636Z,9.97
2022-12-24T16:43:59.742Z,10.20
2022-12-24T16:48:57.561Z,10.12
2022-12-24T16:53:54.829Z,10.30
2022-12-24T16:58:51.884Z,10.34
2022-12-24T17:03:49.522Z,10.09
2022-12-24T17:08:48.579Z,9.77
2022-12-24T17:13:45.606Z,10.41
2022-12-24T17:18:44.851Z,10.07
2022-12-24T17:23:46.823Z,10.50
2022-12-24T17:28:47.199Z,10.39
2022-12-24T17:33:48.136Z,10.42
2022-12-24T17:38:49.396Z,10.29
2022-12-24T17:43:54.369Z,10.39
2022-12-24T17:49:10.721Z,10.48
2022-12-24T17:54:12.828Z,10.46
2022-12-24T17:59:16.731Z,9.83
2022-12-24T18:04:15.538Z,10.23
2022-12-24T18:09:12.547Z,9.84
2022-12-24T18:14:13.351Z,9.43
2022-12-24T18:19:14.173Z,9.87
2022-12-24T18:24:13.451Z,9.78
2022-12-24T18:29:10.546Z,9.39
2022-12-24T18:34:12.101Z,9.81
2022-12-24T18:39:09.139Z,9.65
2022-12-24T18:44:06.139Z,9.38
2022-12-24T18:49:05.286Z,9.83
2022-12-24T18:54:04.668Z,9.19
2022-12-24T18:59:03.139Z,9.74
2022-12-24T19:04:00.803Z,9.46
2022-12-24T19:08:59.801Z,9.06
2022-12-24T19:13:58.737Z,9.62
2022-12-24T19:18:55.750Z,9.07
2022-12-24T19:23:55.897Z,9.31
2022-12-24T19:29:10.769Z,8.76
2022-12-24T19:34:07.722Z,9.10
2022-12-24T19:39:05.319Z,8.90
2022-12-24T19:44:05.190Z,9.19
2022-12-24T19:49:05.728Z,9.43
2022-12-24T19:54:03.894Z,9.38
2022-12-24T19:59:04.954Z,9.47
2022-12-24T20:04:02.761Z,9.06
2022-12-24T20:09:02.171Z,9.68
2022-12-24T20:14:00.614Z,9.64
2022-12-24T20:19:00.554Z,9.00
2022-12-24T20:24:00.915Z,9.55
2022-12-24T20:29:03.054Z,9.49
2022-12-24T20:34:01.680Z,8.91
2022-12-24T20:38:59.095Z,9.44
2022-12-24T20:43:58.407Z,9.38
2022-12-24T20:48:55.765Z,9.44
2022-12-24T20:53:53.559Z,9.11
2022-12-24T20:58:50.859Z,9.36
2022-12-24T21:03:53.799Z,8.99
2022-12-24T21:08:54.053Z,8.84
2022-12-24T21:13:51.320Z,9.13
2022-12-24T21:18:49.544Z,9.11
2022-12-24T21:23:46.398Z,8.95
2022-12-24T21:28:44.847Z,8.72
2022-12-24T21:33:42.290Z,8.68
2022-12-24T21:38:39.849Z,8.65
2022-12-24T21:43:37.687Z,8.84
2022-12-24T21:48:52.785Z,8.12
2022-12-24T21:54:08.582Z,8.49
2022-12-24T21:59:07.224Z,8.45
2022-12-24T22:04:04.447Z,8.46
2022-12-24T22:09:22.121Z,8.36
2022-12-24T22:14:19.267Z,8.47
2022-12-24T22:19:16.255Z,7.86
2022-12-24T22:24:14.039Z,8.15
2022-12-24T22:29:11.685Z,8.10
2022-12-24T22:34:14.216Z,8.44
2022-12-24T22:39:11.625Z,7.77
2022-12-24T22:44:10.673Z,7.92
2022-12-24T22:49:07.869Z,8.21
2022-12-24T22:54:07.651Z,8.42
2022-12-24T22:59:05.362Z,8.03
2022-12-24T23:04:05.439Z,7.97
2022-12-24T23:09:05.261Z,7.94
2022-12-24T23:14:25.580Z,8.03
2022-12-24T23:19:23.777Z,7.87
2022-12-24T23:24:20.769Z,8.02
2022-12-24T23:29:18.229Z,8.04
2022-12-24T23:34:15.521Z,7.88
2022-12-24T23:39:14.957Z,7.66
2022-12-24T23:44:11.954Z,7.41
2022-12-24T23:49:12.806Z,7.96
2022-12-24T23:54:13.866Z,7.92
2022-12-24T23:59:11.089Z,7.74
